Crosby Carrier — WDF5669 — position and weather

sailwx.info

Track history (hours):
 
Tides and Currents Weather Stations Pressure Air Temp Water Temp Dewpoint Dewpoint Depression Visibility Wind Speed Wind Dir Waves Ship Positions

Crosby Carrier

Owner: Crosby Marine Transportation LLC, Golden Meadow, LA. More information available from US FCC via Universal Licensing System and Coast Guard Vessel Documentation Center.

Last reported at 2017-Sep-21 08:17 UTC. Time now 2017-Sep-21 16:16 UTC.
Position N 29°34' W 090°29'.

Length 21 m; draft 2.3 m.

Type: Ship. MMSI: 367465960.

Date/timePositionNaut miles runAvg speedWind from/ knotsBaromVisibWave heightAir tempDewpointWater temp
2017-Sep-21 08:17N 29°34' W 090°29'2 8.0
2017-Sep-21 08:00N 29°34' W 090°31'4 7.6
2017-Sep-21 07:30N 29°35' W 090°36'4 7.3
2017-Sep-21 07:00N 29°36' W 090°39'3 5.5
2017-Sep-21 06:30N 29°36' W 090°43'3 6.0
2017-Sep-21 06:00N 29°33' W 090°42'0 0.1
2017-Sep-21 05:30N 29°33' W 090°42'0 0.7
2017-Sep-21 05:00N 29°33' W 090°42'2 4.2
2017-Sep-21 04:30N 29°35' W 090°43'2 3.6
2017-Sep-21 04:00N 29°37' W 090°42'1 1.8
2017-Sep-21 03:30N 29°36' W 090°41'0 0.6
2017-Sep-21 03:00N 29°36' W 090°41'2 4.1
2017-Sep-21 02:30N 29°36' W 090°39'2 4.4
2017-Sep-21 02:00N 29°35' W 090°37'2 4.1
2017-Sep-21 01:30N 29°34' W 090°34'2 4.2
2017-Sep-21 01:00N 29°34' W 090°32'2 4.7
2017-Sep-21 00:30N 29°34' W 090°29'4 0.2
2017-Sep-20 00:09N 29°33' W 090°25'3 6.3
2017-Sep-19 23:40N 29°34' W 090°28'1 6.4
2017-Sep-19 23:30N 29°34' W 090°30'3 6.3
2017-Sep-19 23:00N 29°34' W 090°33'3 5.8
2017-Sep-19 22:30N 29°35' W 090°36'3 6.2
2017-Sep-19 22:00N 29°36' W 090°40'1 1.2
2017-Sep-19 21:30N 29°36' W 090°40'0 0.1
2017-Sep-19 21:00N 29°36' W 090°40'0 0.0
2017-Sep-19 20:30N 29°36' W 090°40'0 0.0
2017-Sep-19 20:00N 29°36' W 090°40'1 2.0
2017-Sep-19 19:30N 29°36' W 090°39'3 6.1
2017-Sep-19 19:00N 29°35' W 090°36'0 0.4
2017-Sep-19 18:30N 29°35' W 090°36'3 6.4
2017-Sep-19 18:00N 29°34' W 090°33'1 0.0
2017-Sep-18 03:14N 29°34' W 090°33'1 4.7
2017-Sep-18 03:00N 29°34' W 090°34'2 4.5
2017-Sep-18 02:29N 29°35' W 090°37'2 5.0
2017-Sep-18 02:00N 29°36' W 090°39'2 4.9
2017-Sep-18 01:30N 29°37' W 090°42'2 3.7
2017-Sep-18 01:00N 29°35' W 090°43'2 3.5
2017-Sep-18 00:30N 29°34' W 090°44'1 2.3
2017-Sep-18 00:00N 29°33' W 090°45'1 2.0
2017-Sep-17 23:30N 29°32' W 090°46'3 5.1
2017-Sep-17 23:00N 29°32' W 090°49'2 0.1
2017-Sep-16 21:15N 29°32' W 090°50'2 8.5
2017-Sep-16 21:01N 29°32' W 090°48'4 7.2
2017-Sep-16 20:31N 29°34' W 090°44'2 4.5
2017-Sep-16 20:00N 29°33' W 090°42'0 0.3
2017-Sep-16 19:31N 29°33' W 090°42'0 0.0
2017-Sep-16 19:01N 29°33' W 090°42'0 0.0
2017-Sep-16 18:31N 29°33' W 090°42'0 0.0
2017-Sep-16 18:00N 29°33' W 090°42'0 0.0
2017-Sep-16 17:31N 29°33' W 090°42'0 0.0
2017-Sep-16 17:01N 29°33' W 090°42'0 0.0
2017-Sep-16 16:30N 29°33' W 090°42'0 0.0
2017-Sep-16 16:01N 29°33' W 090°42'0 0.0
2017-Sep-16 15:31N 29°33' W 090°42'0 0.0
2017-Sep-16 15:01N 29°33' W 090°42'0 0.0
2017-Sep-16 14:31N 29°33' W 090°42'0 0.0
2017-Sep-16 14:00N 29°33' W 090°42'0 0.0
2017-Sep-16 13:31N 29°33' W 090°42'0 0.0
2017-Sep-16 13:00N 29°33' W 090°42'0 0.0
2017-Sep-16 12:30N 29°33' W 090°42'0 0.0
2017-Sep-16 12:01N 29°33' W 090°42'0 0.0
2017-Sep-16 11:31N 29°33' W 090°42'0 0.0
2017-Sep-16 11:01N 29°33' W 090°42'0 0.0
2017-Sep-16 10:31N 29°33' W 090°42'0 0.0
2017-Sep-16 10:00N 29°33' W 090°42'0 0.0
2017-Sep-16 09:31N 29°33' W 090°42'0 0.0
2017-Sep-16 09:01N 29°33' W 090°42'0 0.0
2017-Sep-16 08:30N 29°33' W 090°42'0 0.0
2017-Sep-16 08:00N 29°33' W 090°42'0 0.0
2017-Sep-16 07:31N 29°33' W 090°42'0 0.0
2017-Sep-16 07:00N 29°33' W 090°42'0 0.0
2017-Sep-16 06:31N 29°33' W 090°42'0 0.0
2017-Sep-16 06:01N 29°33' W 090°42'0 0.0
2017-Sep-16 05:31N 29°33' W 090°42'0 0.0
2017-Sep-16 05:01N 29°33' W 090°42'0 0.0
2017-Sep-16 04:30N 29°33' W 090°42'0 0.0
2017-Sep-16 04:01N 29°33' W 090°42'0 0.0
2017-Sep-16 03:31N 29°33' W 090°42'0 0.0
2017-Sep-16 03:00N 29°33' W 090°42'0 0.0
2017-Sep-16 02:31N 29°33' W 090°42'0 0.0
2017-Sep-16 02:01N 29°33' W 090°42'0 0.0
2017-Sep-16 01:31N 29°33' W 090°42'0 0.0
2017-Sep-16 01:00N 29°33' W 090°42'0 0.0
2017-Sep-16 00:31N 29°33' W 090°42'0 0.0
2017-Sep-16 00:01N 29°33' W 090°42'0 0.0
2017-Sep-15 23:31N 29°33' W 090°42'0 0.0
2017-Sep-15 23:00N 29°33' W 090°42'0 0.0
2017-Sep-15 22:31N 29°33' W 090°42'0 0.0
2017-Sep-15 22:01N 29°33' W 090°42'0 0.0
2017-Sep-15 21:30N 29°33' W 090°42'0 0.0
2017-Sep-15 21:01N 29°33' W 090°42'0 0.0
2017-Sep-15 20:31N 29°33' W 090°42'0 0.0
2017-Sep-15 20:01N 29°33' W 090°42'0 0.0
2017-Sep-15 19:30N 29°33' W 090°42'0 0.0
2017-Sep-15 19:01N 29°33' W 090°42'0 0.0
2017-Sep-15 18:31N 29°33' W 090°42'0 0.0
2017-Sep-15 18:00N 29°33' W 090°42'0 0.0
2017-Sep-15 17:31N 29°33' W 090°42'0 0.0
2017-Sep-15 17:00N 29°33' W 090°42'0 0.0
2017-Sep-15 16:31N 29°33' W 090°42'0 0.0
2017-Sep-15 16:01N 29°33' W 090°42'0 0.0
2017-Sep-15 15:30N 29°33' W 090°42'0 0.4
2017-Sep-15 15:01N 29°33' W 090°42'3 5.8
2017-Sep-15 14:30N 29°36' W 090°43'1 2.6
2017-Sep-15 14:01N 29°37' W 090°42'2 3.5
2017-Sep-15 13:31N 29°36' W 090°40'0 0.1
2017-Sep-15 13:00N 29°36' W 090°40'0 0.0
2017-Sep-15 12:30N 29°36' W 090°40'0 0.0
2017-Sep-15 12:00N 29°36' W 090°40'0 0.0
2017-Sep-15 11:30N 29°36' W 090°40'0 1.0
2017-Sep-15 11:00N 29°36' W 090°40'0 0.0
2017-Sep-15 10:30N 29°36' W 090°40'0 0.0
2017-Sep-15 10:00N 29°36' W 090°40'1 1.0
2017-Sep-15 09:30N 29°36' W 090°40'3 5.1
2017-Sep-15 09:01N 29°35' W 090°43'4 7.6
2017-Sep-15 08:30N 29°31' W 090°42'4 8.7
2017-Sep-15 08:00N 29°27' W 090°43'5 0.6
2017-Sep-14 23:57N 29°22' W 090°44'3 5.7
2017-Sep-14 23:30N 29°25' W 090°44'3 5.6
2017-Sep-14 23:00N 29°28' W 090°43'3 5.1
2017-Sep-14 22:31N 29°30' W 090°43'2 4.9
2017-Sep-14 22:00N 29°33' W 090°42'0 0.4
2017-Sep-14 21:31N 29°33' W 090°42'1 1.1
2017-Sep-14 21:01N 29°33' W 090°42'2 4.5
2017-Sep-14 20:30N 29°33' W 090°45'4 7.8
2017-Sep-14 20:01N 29°32' W 090°49'  
2017-Sep-12 14:30N 29°32' W 090°51'4 7.7
2017-Sep-12 14:01N 29°32' W 090°46'3 6.8
2017-Sep-12 13:30N 29°34' W 090°43'0 0.1
2017-Sep-12 13:00N 29°34' W 090°43'0 0.0
2017-Sep-12 12:30N 29°34' W 090°43'  
Track history (hours):
 
Tides and Currents Weather Stations Pressure Air Temp Water Temp Dewpoint Dewpoint Depression Visibility Wind Speed Wind Dir Waves Ship Positions

Crosby Carrier

Owner: Crosby Marine Transportation LLC, Golden Meadow, LA. More information available from US FCC via Universal Licensing System and Coast Guard Vessel Documentation Center.

Last reported at 2017-Sep-21 08:17 UTC. Time now 2017-Sep-21 16:16 UTC.
Position N 29°34' W 090°29'.

Length 21 m; draft 2.3 m.

Type: Ship. MMSI: 367465960.

Date/timePositionNaut miles runAvg speedWind from/ knotsBaromVisibWave heightAir tempDewpointWater temp
2017-Sep-21 08:17N 29°34' W 090°29'2 8.0
2017-Sep-21 08:00N 29°34' W 090°31'4 7.6
2017-Sep-21 07:30N 29°35' W 090°36'4 7.3
2017-Sep-21 07:00N 29°36' W 090°39'3 5.5
2017-Sep-21 06:30N 29°36' W 090°43'3 6.0
2017-Sep-21 06:00N 29°33' W 090°42'0 0.1
2017-Sep-21 05:30N 29°33' W 090°42'0 0.7
2017-Sep-21 05:00N 29°33' W 090°42'2 4.2
2017-Sep-21 04:30N 29°35' W 090°43'2 3.6
2017-Sep-21 04:00N 29°37' W 090°42'1 1.8
2017-Sep-21 03:30N 29°36' W 090°41'0 0.6
2017-Sep-21 03:00N 29°36' W 090°41'2 4.1
2017-Sep-21 02:30N 29°36' W 090°39'2 4.4
2017-Sep-21 02:00N 29°35' W 090°37'2 4.1
2017-Sep-21 01:30N 29°34' W 090°34'2 4.2
2017-Sep-21 01:00N 29°34' W 090°32'2 4.7
2017-Sep-21 00:30N 29°34' W 090°29'4 0.2
2017-Sep-20 00:09N 29°33' W 090°25'3 6.3
2017-Sep-19 23:40N 29°34' W 090°28'1 6.4
2017-Sep-19 23:30N 29°34' W 090°30'3 6.3
2017-Sep-19 23:00N 29°34' W 090°33'3 5.8
2017-Sep-19 22:30N 29°35' W 090°36'3 6.2
2017-Sep-19 22:00N 29°36' W 090°40'1 1.2
2017-Sep-19 21:30N 29°36' W 090°40'0 0.1
2017-Sep-19 21:00N 29°36' W 090°40'0 0.0
2017-Sep-19 20:30N 29°36' W 090°40'0 0.0
2017-Sep-19 20:00N 29°36' W 090°40'1 2.0
2017-Sep-19 19:30N 29°36' W 090°39'3 6.1
2017-Sep-19 19:00N 29°35' W 090°36'0 0.4
2017-Sep-19 18:30N 29°35' W 090°36'3 6.4
2017-Sep-19 18:00N 29°34' W 090°33'1 0.0
2017-Sep-18 03:14N 29°34' W 090°33'1 4.7
2017-Sep-18 03:00N 29°34' W 090°34'2 4.5
2017-Sep-18 02:29N 29°35' W 090°37'2 5.0
2017-Sep-18 02:00N 29°36' W 090°39'2 4.9
2017-Sep-18 01:30N 29°37' W 090°42'2 3.7
2017-Sep-18 01:00N 29°35' W 090°43'2 3.5
2017-Sep-18 00:30N 29°34' W 090°44'1 2.3
2017-Sep-18 00:00N 29°33' W 090°45'1 2.0
2017-Sep-17 23:30N 29°32' W 090°46'3 5.1
2017-Sep-17 23:00N 29°32' W 090°49'2 0.1
2017-Sep-16 21:15N 29°32' W 090°50'2 8.5
2017-Sep-16 21:01N 29°32' W 090°48'4 7.2
2017-Sep-16 20:31N 29°34' W 090°44'2 4.5
2017-Sep-16 20:00N 29°33' W 090°42'0 0.3
2017-Sep-16 19:31N 29°33' W 090°42'0 0.0
2017-Sep-16 19:01N 29°33' W 090°42'0 0.0
2017-Sep-16 18:31N 29°33' W 090°42'0 0.0
2017-Sep-16 18:00N 29°33' W 090°42'0 0.0
2017-Sep-16 17:31N 29°33' W 090°42'0 0.0
2017-Sep-16 17:01N 29°33' W 090°42'0 0.0
2017-Sep-16 16:30N 29°33' W 090°42'0 0.0
2017-Sep-16 16:01N 29°33' W 090°42'0 0.0
2017-Sep-16 15:31N 29°33' W 090°42'0 0.0
2017-Sep-16 15:01N 29°33' W 090°42'0 0.0
2017-Sep-16 14:31N 29°33' W 090°42'0 0.0
2017-Sep-16 14:00N 29°33' W 090°42'0 0.0
2017-Sep-16 13:31N 29°33' W 090°42'0 0.0
2017-Sep-16 13:00N 29°33' W 090°42'0 0.0
2017-Sep-16 12:30N 29°33' W 090°42'0 0.0
2017-Sep-16 12:01N 29°33' W 090°42'0 0.0
2017-Sep-16 11:31N 29°33' W 090°42'0 0.0
2017-Sep-16 11:01N 29°33' W 090°42'0 0.0
2017-Sep-16 10:31N 29°33' W 090°42'0 0.0
2017-Sep-16 10:00N 29°33' W 090°42'0 0.0
2017-Sep-16 09:31N 29°33' W 090°42'0 0.0
2017-Sep-16 09:01N 29°33' W 090°42'0 0.0
2017-Sep-16 08:30N 29°33' W 090°42'0 0.0
2017-Sep-16 08:00N 29°33' W 090°42'0 0.0
2017-Sep-16 07:31N 29°33' W 090°42'0 0.0
2017-Sep-16 07:00N 29°33' W 090°42'0 0.0
2017-Sep-16 06:31N 29°33' W 090°42'0 0.0
2017-Sep-16 06:01N 29°33' W 090°42'0 0.0
2017-Sep-16 05:31N 29°33' W 090°42'0 0.0
2017-Sep-16 05:01N 29°33' W 090°42'0 0.0
2017-Sep-16 04:30N 29°33' W 090°42'0 0.0
2017-Sep-16 04:01N 29°33' W 090°42'0 0.0
2017-Sep-16 03:31N 29°33' W 090°42'0 0.0
2017-Sep-16 03:00N 29°33' W 090°42'0 0.0
2017-Sep-16 02:31N 29°33' W 090°42'0 0.0
2017-Sep-16 02:01N 29°33' W 090°42'0 0.0
2017-Sep-16 01:31N 29°33' W 090°42'0 0.0
2017-Sep-16 01:00N 29°33' W 090°42'0 0.0
2017-Sep-16 00:31N 29°33' W 090°42'0 0.0
2017-Sep-16 00:01N 29°33' W 090°42'0 0.0
2017-Sep-15 23:31N 29°33' W 090°42'0 0.0
2017-Sep-15 23:00N 29°33' W 090°42'0 0.0
2017-Sep-15 22:31N 29°33' W 090°42'0 0.0
2017-Sep-15 22:01N 29°33' W 090°42'0 0.0
2017-Sep-15 21:30N 29°33' W 090°42'0 0.0
2017-Sep-15 21:01N 29°33' W 090°42'0 0.0
2017-Sep-15 20:31N 29°33' W 090°42'0 0.0
2017-Sep-15 20:01N 29°33' W 090°42'0 0.0
2017-Sep-15 19:30N 29°33' W 090°42'0 0.0
2017-Sep-15 19:01N 29°33' W 090°42'0 0.0
2017-Sep-15 18:31N 29°33' W 090°42'0 0.0
2017-Sep-15 18:00N 29°33' W 090°42'0 0.0
2017-Sep-15 17:31N 29°33' W 090°42'0 0.0
2017-Sep-15 17:00N 29°33' W 090°42'0 0.0
2017-Sep-15 16:31N 29°33' W 090°42'0 0.0
2017-Sep-15 16:01N 29°33' W 090°42'0 0.0
2017-Sep-15 15:30N 29°33' W 090°42'0 0.4
2017-Sep-15 15:01N 29°33' W 090°42'3 5.8
2017-Sep-15 14:30N 29°36' W 090°43'1 2.6
2017-Sep-15 14:01N 29°37' W 090°42'2 3.5
2017-Sep-15 13:31N 29°36' W 090°40'0 0.1
2017-Sep-15 13:00N 29°36' W 090°40'0 0.0
2017-Sep-15 12:30N 29°36' W 090°40'0 0.0
2017-Sep-15 12:00N 29°36' W 090°40'0 0.0
2017-Sep-15 11:30N 29°36' W 090°40'0 1.0
2017-Sep-15 11:00N 29°36' W 090°40'0 0.0
2017-Sep-15 10:30N 29°36' W 090°40'0 0.0
2017-Sep-15 10:00N 29°36' W 090°40'1 1.0
2017-Sep-15 09:30N 29°36' W 090°40'3 5.1
2017-Sep-15 09:01N 29°35' W 090°43'4 7.6
2017-Sep-15 08:30N 29°31' W 090°42'4 8.7
2017-Sep-15 08:00N 29°27' W 090°43'5 0.6
2017-Sep-14 23:57N 29°22' W 090°44'3 5.7
2017-Sep-14 23:30N 29°25' W 090°44'3 5.6
2017-Sep-14 23:00N 29°28' W 090°43'3 5.1
2017-Sep-14 22:31N 29°30' W 090°43'2 4.9
2017-Sep-14 22:00N 29°33' W 090°42'0 0.4
2017-Sep-14 21:31N 29°33' W 090°42'1 1.1
2017-Sep-14 21:01N 29°33' W 090°42'2 4.5
2017-Sep-14 20:30N 29°33' W 090°45'4 7.8
2017-Sep-14 20:01N 29°32' W 090°49'  
2017-Sep-12 14:30N 29°32' W 090°51'4 7.7
2017-Sep-12 14:01N 29°32' W 090°46'3 6.8
2017-Sep-12 13:30N 29°34' W 090°43'0 0.1
2017-Sep-12 13:00N 29°34' W 090°43'0 0.0
2017-Sep-12 12:30N 29°34' W 090°43'  

Dump ship's entire track history